Time;durP1;ratioP1;P1;durP2;ratioP2;P2;SDS_P1;SDS_P2;PMS_P1;PMS_P2;Temp;Humidity;BMP_temperature;BMP_pressure;BME280_temperature;BME280_humidity;BME280_pressure;Samples;Min_cycle;Max_cycle;Signal;HPM_P1;HPM_P2
2021/05/08 00:01:25;;;;;;;9.40;6.90;;;11.50;99.90;;;;;;5053707;28;20169;-82
2021/05/08 00:03:50;;;;;;;7.50;6.23;;;11.50;1.00;;;;;;5054404;28;20193;-83
2021/05/08 00:06:16;;;;;;;8.70;7.13;;;11.50;1.00;;;;;;5054042;28;20209;-83
2021/05/08 00:08:42;;;;;;;8.60;7.40;;;11.40;99.90;;;;;;5054924;28;20161;-81
2021/05/08 00:11:07;;;;;;;7.53;6.73;;;11.40;99.90;;;;;;5054866;28;20255;-82
2021/05/08 00:13:33;;;;;;;8.67;6.83;;;11.50;1.10;;;;;;5053465;28;20206;-82
2021/05/08 00:15:59;;;;;;;8.57;6.83;;;11.50;92.00;;;;;;5052997;28;20184;-83
2021/05/08 00:18:25;;;;;;;8.70;6.30;;;11.60;1.00;;;;;;5054733;28;20252;-83
2021/05/08 00:20:50;;;;;;;8.93;6.97;;;11.40;99.90;;;;;;5053426;28;20181;-80
2021/05/08 00:23:16;;;;;;;7.80;6.73;;;11.50;99.90;;;;;;5053342;28;20513;-81
2021/05/08 00:25:41;;;;;;;10.20;7.40;;;11.50;1.00;;;;;;5054551;28;20209;-80
2021/05/08 00:28:07;;;;;;;8.30;7.40;;;11.30;1.00;;;;;;5054467;28;20169;-80
2021/05/08 00:30:34;;;;;;;7.77;6.97;;;11.30;1.00;;;;;;5054305;28;20256;-82
2021/05/08 00:32:59;;;;;;;10.10;6.93;;;11.30;1.00;;;;;;5054396;28;20497;-81
2021/05/08 00:35:25;;;;;;;9.80;7.93;;;11.20;99.90;;;;;;5054309;28;20176;-82
2021/05/08 00:37:51;;;;;;;9.13;7.93;;;11.30;1.00;;;;;;5054361;28;20201;-82
2021/05/08 00:40:16;;;;;;;10.97;7.50;;;11.20;1.00;;;;;;5054287;28;20169;-81
2021/05/08 00:42:42;;;;;;;12.27;7.80;;;11.40;99.90;;;;;;5054392;28;20169;-81
2021/05/08 00:45:08;;;;;;;12.13;7.43;;;11.30;1.00;;;;;;5052441;28;20209;-81
2021/05/08 00:47:47;;;;;;;9.63;8.63;;;11.40;99.90;;;;;;5054031;28;20161;-81
2021/05/08 00:50:16;;;;;;;11.50;8.17;;;11.20;1.00;;;;;;5052621;28;20210;-81
2021/05/08 00:52:42;;;;;;;11.60;8.07;;;11.30;99.90;;;;;;5054011;28;20172;-81
2021/05/08 00:55:08;;;;;;;10.13;8.93;;;11.30;1.00;;;;;;5054006;28;20171;-81
2021/05/08 00:57:34;;;;;;;11.40;8.20;;;11.40;99.90;;;;;;5053515;28;20169;-82
2021/05/08 01:00:01;;;;;;;9.93;8.57;;;11.30;1.00;;;;;;5052012;28;20628;-83
2021/05/08 01:02:27;;;;;;;9.27;7.90;;;11.30;99.90;;;;;;5053871;28;20276;-82
2021/05/08 01:04:53;;;;;;;9.43;7.53;;;11.40;1.00;;;;;;5053660;28;20288;-82
2021/05/08 01:07:19;;;;;;;10.17;7.50;;;11.30;99.90;;;;;;5054023;28;20184;-83
2021/05/08 01:09:46;;;;;;;11.17;7.10;;;11.20;1.00;;;;;;5053656;28;20642;-82
2021/05/08 01:12:12;;;;;;;10.90;7.10;;;11.00;99.90;;;;;;5052542;28;20181;-81
2021/05/08 01:14:38;;;;;;;9.20;7.27;;;11.00;99.90;;;;;;5052015;28;20637;-83
2021/05/08 01:17:04;;;;;;;9.93;7.23;;;11.10;99.90;;;;;;5053487;28;20169;-82
2021/05/08 01:19:32;;;;;;;8.50;7.30;;;11.20;86.30;;;;;;5052382;28;20183;-80
2021/05/08 01:21:57;;;;;;;11.20;7.10;;;11.40;1.00;;;;;;5053860;28;20634;-80
2021/05/08 01:24:23;;;;;;;9.70;6.73;;;11.50;1.00;;;;;;5052130;28;20175;-81
2021/05/08 01:26:49;;;;;;;8.23;7.13;;;11.70;99.90;;;;;;5052093;28;20176;-81
2021/05/08 01:29:15;;;;;;;7.23;6.47;;;11.70;99.90;;;;;;5051945;28;20215;-81
2021/05/08 01:31:40;;;;;;;8.20;6.67;;;11.80;1.00;;;;;;5053363;28;20210;-83
2021/05/08 01:34:06;;;;;;;10.27;7.33;;;11.80;1.00;;;;;;5053680;28;20215;-81
2021/05/08 01:36:32;;;;;;;10.63;7.63;;;11.90;1.00;;;;;;5053978;28;20215;-81
2021/05/08 01:39:05;;;;;;;9.40;6.67;;;11.90;1.00;;;;;;5053563;28;20188;-82
2021/05/08 01:41:31;;;;;;;10.83;6.87;;;12.00;1.00;;;;;;5051733;28;20173;-81
2021/05/08 01:43:57;;;;;;;10.00;6.47;;;12.00;99.90;;;;;;5052882;28;20169;-81
2021/05/08 01:46:22;;;;;;;9.43;6.60;;;12.00;99.90;;;;;;5052927;28;20596;-82
2021/05/08 01:48:48;;;;;;;10.57;7.60;;;12.00;99.90;;;;;;5053041;28;20173;-81
2021/05/08 01:51:14;;;;;;;14.60;7.47;;;12.00;99.90;;;;;;5051884;28;20185;-82
2021/05/08 01:53:40;;;;;;;11.73;7.47;;;12.00;99.90;;;;;;5051854;28;20176;-82
2021/05/08 01:56:07;;;;;;;9.63;6.40;;;12.00;99.90;;;;;;5052879;28;20254;-83
2021/05/08 01:58:33;;;;;;;10.67;7.47;;;11.90;1.00;;;;;;5052916;28;20180;-82
2021/05/08 02:00:59;;;;;;;10.17;6.87;;;11.80;1.00;;;;;;5051607;28;20177;-82
2021/05/08 02:03:25;;;;;;;8.33;6.60;;;11.90;1.00;;;;;;5051617;28;20193;-82
2021/05/08 02:05:51;;;;;;;10.30;7.33;;;11.90;1.00;;;;;;5052837;28;20208;-82
2021/05/08 02:08:17;;;;;;;9.77;6.73;;;11.90;1.00;;;;;;5051796;28;20173;-81
2021/05/08 02:10:44;;;;;;;11.73;7.10;;;11.90;1.00;;;;;;5052773;28;20179;-83
2021/05/08 02:13:10;;;;;;;12.03;7.30;;;11.80;1.00;;;;;;5051484;28;20169;-82
2021/05/08 02:15:37;;;;;;;11.37;7.30;;;11.70;1.00;;;;;;5052757;28;20201;-83
2021/05/08 02:18:03;;;;;;;12.30;7.67;;;11.70;33.40;;;;;;5053007;28;20165;-81
2021/05/08 02:20:33;;;;;;;13.20;8.10;;;11.70;99.90;;;;;;5053035;28;20169;-82
2021/05/08 02:23:01;;;;;;;9.73;7.30;;;11.70;99.90;;;;;;5053018;28;20664;-82
2021/05/08 02:25:28;;;;;;;11.90;8.13;;;11.70;68.70;;;;;;5051623;28;20208;-83
2021/05/08 02:27:54;;;;;;;12.33;7.93;;;11.70;99.90;;;;;;5051285;28;20551;-79
2021/05/08 02:30:23;;;;;;;10.37;6.77;;;11.80;1.00;;;;;;5052921;28;20172;-82
2021/05/08 02:32:49;;;;;;;11.93;7.57;;;11.70;1.00;;;;;;5052627;28;20162;-79
2021/05/08 02:35:16;;;;;;;10.47;7.20;;;11.50;99.90;;;;;;5051188;28;20190;-84
2021/05/08 02:37:42;;;;;;;10.00;6.57;;;11.40;99.90;;;;;;5052603;28;20223;-84
2021/05/08 02:40:12;;;;;;;12.63;7.03;;;11.50;99.90;;;;;;5051440;28;20185;-83
2021/05/08 02:42:38;;;;;;;8.00;5.97;;;11.30;99.90;;;;;;5052233;28;20184;-82
2021/05/08 02:45:06;;;;;;;9.00;5.77;;;11.10;99.90;;;;;;5052734;28;20219;-80
2021/05/08 02:47:32;;;;;;;10.10;5.30;;;11.00;1.00;;;;;;5052568;28;20180;-82
2021/05/08 02:49:57;;;;;;;8.67;5.20;;;11.00;1.00;;;;;;5052429;28;20173;-82
2021/05/08 02:52:23;;;;;;;7.47;4.93;;;10.90;99.90;;;;;;5051244;28;20265;-82
2021/05/08 02:54:49;;;;;;;10.10;5.23;;;11.00;99.90;;;;;;5052152;28;20625;-82
2021/05/08 02:57:15;;;;;;;8.03;5.10;;;10.80;1.00;;;;;;5052545;28;20192;-83
2021/05/08 02:59:42;;;;;;;7.17;4.90;;;10.80;1.00;;;;;;5052406;28;20523;-82
2021/05/08 03:02:08;;;;;;;9.23;5.77;;;10.70;1.00;;;;;;5051955;28;20197;-81
2021/05/08 03:04:34;;;;;;;10.17;5.33;;;10.80;1.00;;;;;;5052421;28;20197;-80
2021/05/08 03:07:02;;;;;;;8.47;5.50;;;10.70;1.00;;;;;;5053228;28;20177;-81
2021/05/08 03:09:28;;;;;;;9.20;5.63;;;10.60;1.00;;;;;;5053798;28;20173;-81
2021/05/08 03:11:55;;;;;;;11.27;5.30;;;10.70;1.00;;;;;;5061780;28;20181;-80
2021/05/08 03:14:20;;;;;;;8.63;5.33;;;10.70;1.00;;;;;;5053457;28;20173;-82
2021/05/08 03:16:46;;;;;;;7.40;5.00;;;10.60;1.00;;;;;;5052532;28;20550;-80
2021/05/08 03:19:11;;;;;;;11.67;5.33;;;10.60;1.00;;;;;;5051056;28;20688;-82
2021/05/08 03:21:37;;;;;;;9.70;5.33;;;10.50;1.00;;;;;;5053359;28;20644;-82
2021/05/08 03:24:04;;;;;;;8.00;4.70;;;10.50;1.00;;;;;;5055544;28;20260;-80
2021/05/08 03:26:30;;;;;;;12.00;4.60;;;10.60;23.90;;;;;;5055795;28;20248;-82
2021/05/08 03:28:56;;;;;;;10.47;4.80;;;10.60;11.00;;;;;;5055803;28;20177;-81
2021/05/08 03:31:22;;;;;;;9.80;5.03;;;10.60;91.50;;;;;;5054600;28;20255;-82
2021/05/08 03:33:47;;;;;;;11.47;5.10;;;10.50;99.90;;;;;;5055377;28;20556;-81
2021/05/08 03:36:13;;;;;;;8.43;4.67;;;10.50;1.00;;;;;;5055731;28;20169;-79
2021/05/08 03:38:39;;;;;;;10.00;4.77;;;10.50;99.90;;;;;;5055383;28;20180;-81
2021/05/08 03:41:04;;;;;;;9.30;4.33;;;10.60;1.00;;;;;;5055639;28;20184;-81
2021/05/08 03:43:30;;;;;;;6.43;4.67;;;10.70;1.00;;;;;;5054305;28;20276;-81
2021/05/08 03:45:56;;;;;;;6.90;4.43;;;10.60;1.00;;;;;;5055129;28;20209;-79
2021/05/08 03:48:22;;;;;;;8.10;4.67;;;10.60;99.90;;;;;;5055434;28;20173;-82
2021/05/08 03:50:48;;;;;;;6.63;4.13;;;10.60;1.00;;;;;;5055525;28;20196;-80
2021/05/08 03:53:14;;;;;;;6.30;4.40;;;10.50;1.00;;;;;;5055057;28;20653;-78
2021/05/08 03:55:40;;;;;;;8.37;4.03;;;10.50;73.30;;;;;;5053982;28;20181;-81
2021/05/08 03:58:06;;;;;;;7.20;4.43;;;10.50;99.50;;;;;;5053751;28;20180;-81
2021/05/08 04:00:32;;;;;;;6.60;4.17;;;10.50;99.90;;;;;;5055175;28;20625;-80
2021/05/08 04:02:58;;;;;;;8.77;4.07;;;10.30;99.90;;;;;;5053270;28;20196;-81
2021/05/08 04:05:24;;;;;;;6.53;4.33;;;10.50;99.90;;;;;;5054896;28;20208;-79
2021/05/08 04:07:49;;;;;;;8.47;4.80;;;10.40;99.90;;;;;;5054361;28;20172;-81
2021/05/08 04:10:15;;;;;;;8.37;4.27;;;10.50;1.00;;;;;;5054219;28;20173;-78
2021/05/08 04:12:41;;;;;;;10.67;4.30;;;10.50;99.90;;;;;;5054606;28;20192;-81
2021/05/08 04:15:07;;;;;;;7.20;4.50;;;10.40;1.00;;;;;;5054403;28;20271;-81
2021/05/08 04:17:33;;;;;;;8.10;4.47;;;10.40;1.00;;;;;;5053388;28;20199;-82
2021/05/08 04:19:58;;;;;;;9.57;5.00;;;10.40;1.00;;;;;;5054250;28;20172;-82
2021/05/08 04:22:24;;;;;;;8.77;4.87;;;10.40;1.00;;;;;;5052621;28;20177;-83
2021/05/08 04:24:50;;;;;;;6.70;4.53;;;10.50;1.00;;;;;;5052347;28;20204;-81
2021/05/08 04:27:15;;;;;;;7.80;4.60;;;10.50;99.90;;;;;;5053832;28;20247;-79
2021/05/08 04:29:41;;;;;;;7.23;4.30;;;10.50;1.00;;;;;;5052688;28;20180;-79
2021/05/08 04:32:07;;;;;;;7.87;4.40;;;10.50;1.00;;;;;;5052529;28;20665;-80
2021/05/08 04:34:32;;;;;;;7.60;4.30;;;10.50;1.00;;;;;;5051411;28;20181;-81
2021/05/08 04:36:58;;;;;;;7.87;4.00;;;10.50;1.00;;;;;;5053433;28;20247;-80
2021/05/08 04:39:25;;;;;;;9.57;4.40;;;10.50;1.00;;;;;;5052599;28;20173;-81
2021/05/08 04:41:50;;;;;;;7.73;4.27;;;10.50;1.00;;;;;;5052197;28;20686;-80
2021/05/08 04:44:16;;;;;;;6.53;4.10;;;10.50;1.00;;;;;;5052349;28;20173;-82
2021/05/08 04:46:42;;;;;;;7.33;4.67;;;10.50;1.00;;;;;;5053721;28;20228;-80
2021/05/08 04:49:07;;;;;;;7.57;4.63;;;10.50;1.00;;;;;;5053464;28;20514;-79
2021/05/08 04:51:33;;;;;;;8.13;4.40;;;10.50;1.00;;;;;;5053276;28;20184;-81
2021/05/08 04:53:59;;;;;;;7.63;4.70;;;10.50;1.00;;;;;;5053576;28;20181;-79
2021/05/08 04:56:24;;;;;;;9.13;4.70;;;10.60;17.00;;;;;;5053523;28;20704;-82
2021/05/08 04:58:50;;;;;;;8.57;4.50;;;10.60;1.00;;;;;;5053753;28;20176;-81
2021/05/08 05:01:16;;;;;;;9.23;4.80;;;10.60;1.00;;;;;;5053453;28;20172;-78
2021/05/08 05:03:41;;;;;;;6.87;4.53;;;10.60;1.00;;;;;;5052003;28;20203;-81
2021/05/08 05:06:07;;;;;;;7.83;4.90;;;10.60;99.90;;;;;;5051502;28;20212;-82
2021/05/08 05:08:33;;;;;;;6.70;4.33;;;10.60;1.00;;;;;;5052183;28;20181;-80
2021/05/08 05:10:59;;;;;;;7.57;4.57;;;10.70;99.90;;;;;;5051823;28;20650;-81
2021/05/08 05:13:25;;;;;;;9.13;4.47;;;10.70;99.90;;;;;;5053528;28;20162;-79
2021/05/08 05:15:51;;;;;;;7.77;4.60;;;10.80;99.90;;;;;;5051754;28;20243;-79
2021/05/08 05:18:18;;;;;;;8.10;4.30;;;10.80;99.90;;;;;;5053125;28;20212;-79
2021/05/08 05:20:45;;;;;;;8.43;4.50;;;10.80;99.90;;;;;;5052828;28;20184;-79
2021/05/08 05:23:12;;;;;;;6.70;4.40;;;10.80;99.90;;;;;;5052985;28;20555;-82
2021/05/08 05:25:38;;;;;;;9.03;4.53;;;10.80;1.00;;;;;;5051647;28;20313;-80
2021/05/08 05:28:17;;;;;;;7.50;4.57;;;10.80;26.00;;;;;;5053144;28;20165;-79
2021/05/08 05:30:44;;;;;;;9.17;4.53;;;10.80;1.00;;;;;;5051884;28;20183;-80
2021/05/08 05:33:09;;;;;;;8.33;4.50;;;10.90;31.30;;;;;;5051627;28;20215;-81
2021/05/08 05:35:35;;;;;;;7.43;4.27;;;10.80;82.00;;;;;;5051466;28;20173;-82
2021/05/08 05:38:00;;;;;;;7.67;4.33;;;10.90;1.00;;;;;;5051787;28;20161;-83
2021/05/08 05:40:26;;;;;;;7.40;4.23;;;10.90;1.00;;;;;;5052781;28;20173;-82
2021/05/08 05:42:52;;;;;;;7.97;4.20;;;10.90;1.00;;;;;;5051636;28;20181;-79
2021/05/08 05:45:17;;;;;;;9.40;4.63;;;11.00;1.00;;;;;;5051175;28;20296;-80
2021/05/08 05:47:43;;;;;;;6.40;4.20;;;11.00;1.00;;;;;;5052789;28;20175;-79
2021/05/08 05:50:09;;;;;;;6.07;4.00;;;11.00;1.00;;;;;;5052488;28;20645;-80
2021/05/08 05:52:35;;;;;;;7.30;4.93;;;11.00;1.00;;;;;;5052664;28;20535;-80
2021/05/08 05:55:00;;;;;;;7.77;4.07;;;11.00;1.00;;;;;;5051725;28;20203;-80
2021/05/08 05:57:27;;;;;;;7.87;4.23;;;11.00;1.00;;;;;;5052366;28;20165;-81
2021/05/08 05:59:53;;;;;;;8.80;4.30;;;11.00;1.00;;;;;;5052867;28;20184;-80
2021/05/08 06:02:18;;;;;;;8.60;4.63;;;11.10;1.00;;;;;;5051181;28;20193;-79
2021/05/08 06:04:44;;;;;;;9.00;4.57;;;11.10;99.90;;;;;;5052256;28;20207;-81
2021/05/08 06:07:09;;;;;;;7.73;4.00;;;11.20;99.90;;;;;;5053041;28;20177;-79
2021/05/08 06:09:35;;;;;;;9.13;5.00;;;11.20;99.90;;;;;;5056655;28;20169;-84
2021/05/08 06:12:01;;;;;;;6.83;4.53;;;11.20;99.90;;;;;;5055906;28;20171;-80
2021/05/08 06:14:27;;;;;;;7.17;3.80;;;11.30;99.90;;;;;;5052433;28;20192;-79
2021/05/08 06:16:56;;;;;;;5.80;3.93;;;11.40;11.80;;;;;;5051142;28;20197;-81
2021/05/08 06:19:23;;;;;;;8.70;4.40;;;11.40;1.00;;;;;;5050828;28;20177;-81
2021/05/08 06:21:49;;;;;;;6.63;4.13;;;11.30;12.00;;;;;;5052202;28;20201;-80
2021/05/08 06:24:15;;;;;;;7.40;4.37;;;11.40;1.00;;;;;;5052308;28;20735;-82
2021/05/08 06:26:40;;;;;;;9.40;3.80;;;11.40;1.00;;;;;;5052374;28;20680;-80
2021/05/08 06:29:06;;;;;;;8.23;4.10;;;11.40;1.00;;;;;;5051029;28;20617;-82
2021/05/08 06:31:32;;;;;;;9.20;3.57;;;11.40;1.00;;;;;;5050789;28;20585;-80
2021/05/08 06:33:57;;;;;;;7.13;3.63;;;11.50;1.00;;;;;;5052011;28;20660;-80
2021/05/08 06:36:23;;;;;;;6.47;3.60;;;11.50;1.00;;;;;;5052351;28;20188;-79
2021/05/08 06:38:49;;;;;;;8.20;4.00;;;11.60;1.00;;;;;;5052405;28;20169;-80
2021/05/08 06:41:15;;;;;;;5.63;3.67;;;11.50;1.00;;;;;;5052136;28;20255;-79
2021/05/08 06:43:41;;;;;;;6.90;3.93;;;11.50;1.00;;;;;;5051944;28;20667;-79
2021/05/08 06:46:08;;;;;;;6.83;3.77;;;11.50;1.00;;;;;;5050574;28;20283;-80
2021/05/08 06:48:35;;;;;;;7.77;3.50;;;11.50;1.00;;;;;;5050617;28;20263;-81
2021/05/08 06:51:01;;;;;;;7.40;4.03;;;11.50;1.00;;;;;;5051900;28;20165;-80
2021/05/08 06:53:27;;;;;;;6.60;3.90;;;11.50;1.00;;;;;;5051040;28;20532;-80
2021/05/08 06:55:55;;;;;;;6.97;4.10;;;11.50;1.00;;;;;;5051411;28;20653;-80
2021/05/08 06:58:21;;;;;;;6.43;3.50;;;11.50;96.00;;;;;;5053665;28;20176;-80
2021/05/08 07:00:50;;;;;;;5.80;3.60;;;11.40;1.00;;;;;;5055736;28;20284;-82
2021/05/08 07:03:15;;;;;;;6.77;3.30;;;11.40;1.00;;;;;;5053544;28;20200;-79
2021/05/08 07:05:44;;;;;;;5.73;3.30;;;11.50;1.00;;;;;;5055475;28;20200;-78
2021/05/08 07:08:27;;;;;;;5.60;3.17;;;11.70;1.00;;;;;;5055623;28;20169;-79
2021/05/08 07:10:54;;;;;;;5.67;3.73;;;11.70;1.00;;;;;;5055651;28;20784;-79
2021/05/08 07:13:20;;;;;;;7.00;4.27;;;11.70;1.00;;;;;;5055385;28;20165;-80
2021/05/08 07:15:47;;;;;;;5.07;3.70;;;11.80;1.00;;;;;;5053663;28;20173;-80
2021/05/08 07:18:15;;;;;;;7.30;3.77;;;11.80;1.00;;;;;;5053874;28;20176;-78
2021/05/08 07:20:41;;;;;;;9.40;3.60;;;11.90;1.00;;;;;;5054453;28;20242;-81
2021/05/08 07:23:07;;;;;;;5.50;2.97;;;11.90;1.00;;;;;;5055099;28;20637;-78
2021/05/08 07:25:38;;;;;;;6.37;3.13;;;12.00;1.00;;;;;;5053534;28;20317;-77
2021/05/08 07:28:13;;;;;;;5.50;3.40;;;12.00;1.00;;;;;;5053937;28;20172;-81
2021/05/08 07:30:39;;;;;;;5.23;2.70;;;12.10;1.00;;;;;;5053213;28;20605;-79
2021/05/08 07:33:45;;;;;;;5.13;2.93;;;12.00;99.90;;;;;;5052977;28;20217;-78
2021/05/08 07:36:11;;;;;;;6.57;3.23;;;12.10;99.90;;;;;;5054011;28;20187;-81
2021/05/08 07:38:37;;;;;;;4.73;3.10;;;12.10;1.00;;;;;;5054324;28;20169;-78
2021/05/08 07:41:02;;;;;;;6.67;3.40;;;12.20;99.90;;;;;;5064922;28;20202;-81
2021/05/08 07:43:28;;;;;;;6.90;3.20;;;12.00;99.90;;;;;;5072520;28;20170;-79
2021/05/08 07:45:54;;;;;;;5.90;3.60;;;12.10;1.00;;;;;;5073014;28;20257;-78
2021/05/08 07:48:19;;;;;;;4.33;2.80;;;12.20;99.90;;;;;;5074088;28;20586;-79
2021/05/08 07:50:45;;;;;;;5.33;3.20;;;12.40;1.00;;;;;;5073748;28;20637;-79
2021/05/08 07:53:11;;;;;;;8.10;3.50;;;12.50;99.90;;;;;;5072617;28;20526;-83
2021/05/08 07:55:36;;;;;;;6.57;3.70;;;12.70;99.90;;;;;;5072765;28;20582;-80
2021/05/08 07:58:06;;;;;;;4.87;3.30;;;12.70;1.00;;;;;;5073619;28;20164;-79
2021/05/08 08:00:32;;;;;;;6.57;3.47;;;12.80;1.00;;;;;;5072525;28;20285;-79
2021/05/08 08:02:58;;;;;;;4.80;3.20;;;12.70;1.00;;;;;;5073997;28;20294;-80
2021/05/08 08:05:25;;;;;;;5.53;3.17;;;12.80;1.00;;;;;;5072590;28;20287;-82
2021/05/08 08:07:50;;;;;;;4.67;3.17;;;12.70;99.90;;;;;;5073927;28;20254;-80
2021/05/08 08:10:19;;;;;;;5.17;3.63;;;12.60;60.00;;;;;;5074857;28;20206;-78
2021/05/08 08:12:44;;;;;;;7.23;4.20;;;12.60;99.90;;;;;;5076121;28;20180;-80
2021/05/08 08:15:25;;;;;;;5.70;3.20;;;12.70;99.90;;;;;;5072654;28;20171;-80
2021/05/08 08:18:17;;;;;;;5.07;3.03;;;12.70;1.00;;;;;;5074224;28;20172;-80
2021/05/08 08:20:46;;;;;;;6.50;3.30;;;12.80;1.00;;;;;;5073870;28;20640;-80
2021/05/08 08:23:11;;;;;;;6.43;3.10;;;12.90;1.00;;;;;;5072699;28;20539;-81
2021/05/08 08:25:39;;;;;;;7.93;3.07;;;12.80;29.70;;;;;;5072456;28;20212;-81
2021/05/08 08:28:05;;;;;;;4.17;2.70;;;12.90;1.00;;;;;;5073970;28;20625;-82
2021/05/08 08:31:44;;;;;;;4.73;2.73;;;12.90;99.90;;;;;;5072126;28;20210;-79
2021/05/08 08:33:44;;;;;;;5.50;2.93;;;12.80;99.90;;;;;;5072318;28;20300;-82
2021/05/08 08:36:10;;;;;;;4.37;3.23;;;13.00;1.00;;;;;;5073434;28;20501;-80
2021/05/08 08:38:36;;;;;;;6.17;3.17;;;12.90;99.90;;;;;;5071973;28;20188;-84
2021/05/08 08:41:02;;;;;;;4.67;2.80;;;13.10;99.90;;;;;;5073571;28;20210;-80
2021/05/08 08:43:30;;;;;;;5.73;3.30;;;13.20;99.90;;;;;;5071483;28;20362;-81
2021/05/08 08:45:56;;;;;;;5.00;3.50;;;13.20;99.90;;;;;;5073227;28;20290;-81
2021/05/08 08:48:22;;;;;;;5.23;2.97;;;13.20;1.00;;;;;;5073336;28;20190;-80
2021/05/08 08:50:49;;;;;;;4.37;3.00;;;13.10;1.00;;;;;;5072062;28;20574;-78
2021/05/08 08:53:17;;;;;;;6.00;3.30;;;13.20;1.00;;;;;;5073451;28;20199;-81
2021/05/08 08:55:51;;;;;;;6.57;3.03;;;13.20;99.90;;;;;;5071676;28;20181;-83
2021/05/08 08:58:19;;;;;;;4.90;3.03;;;13.10;1.00;;;;;;5072605;28;20203;-80
2021/05/08 09:00:44;;;;;;;5.00;3.33;;;13.20;1.00;;;;;;5071271;28;20222;-82
2021/05/08 09:03:24;;;;;;;5.77;3.43;;;13.30;1.00;;;;;;5071636;28;20269;-81
2021/05/08 09:05:54;;;;;;;6.13;3.27;;;13.40;1.00;;;;;;5072583;28;20287;-82
2021/05/08 09:08:23;;;;;;;5.20;4.17;;;13.50;99.90;;;;;;5071376;28;20259;-80
2021/05/08 09:10:51;;;;;;;4.67;3.23;;;13.60;99.90;;;;;;5073003;28;20180;-80
2021/05/08 09:13:21;;;;;;;6.40;3.20;;;13.60;1.00;;;;;;5070875;28;20216;-80
2021/05/08 09:15:52;;;;;;;6.87;3.13;;;13.60;1.00;;;;;;5072418;28;20168;-80
2021/05/08 09:18:38;;;;;;;4.93;3.57;;;13.60;99.90;;;;;;5071344;28;20195;-84
2021/05/08 09:21:25;;;;;;;6.13;3.50;;;13.60;99.90;;;;;;5071985;28;20174;-80
2021/05/08 09:23:50;;;;;;;5.60;3.40;;;13.50;99.90;;;;;;5071794;28;20210;-82
2021/05/08 09:26:16;;;;;;;6.00;3.43;;;13.40;1.00;;;;;;5072403;28;20205;-81
2021/05/08 09:28:51;;;;;;;5.50;3.37;;;13.40;13.50;;;;;;5072818;28;20207;-82
2021/05/08 09:31:18;;;;;;;6.13;3.87;;;13.40;69.00;;;;;;5072193;28;20214;-79
2021/05/08 09:33:52;;;;;;;4.93;3.40;;;13.40;99.90;;;;;;5073370;28;20184;-81
2021/05/08 09:36:17;;;;;;;7.50;3.80;;;13.50;99.90;;;;;;5072272;28;20637;-81
2021/05/08 09:38:44;;;;;;;5.97;3.50;;;13.50;99.90;;;;;;5072555;28;20256;-85
2021/05/08 09:41:19;;;;;;;7.30;4.77;;;13.50;99.90;;;;;;5071197;28;20172;-80
2021/05/08 09:43:45;;;;;;;6.17;4.00;;;13.40;99.90;;;;;;5072512;28;20263;-80
2021/05/08 09:46:25;;;;;;;6.13;3.67;;;13.20;99.90;;;;;;5072104;28;20720;-82
2021/05/08 09:49:12;;;;;;;5.80;3.93;;;13.20;1.00;;;;;;5071385;28;20199;-80
2021/05/08 09:51:38;;;;;;;6.97;3.50;;;13.20;99.90;;;;;;5072322;28;20183;-81
2021/05/08 09:54:09;;;;;;;5.47;3.60;;;13.10;1.00;;;;;;5071547;28;20173;-87
2021/05/08 09:56:35;;;;;;;6.27;3.67;;;13.10;1.00;;;;;;5074349;28;20223;-81
2021/05/08 09:59:20;;;;;;;6.47;3.60;;;13.10;1.00;;;;;;5074035;28;20493;-81
2021/05/08 10:01:46;;;;;;;6.13;3.60;;;13.20;1.00;;;;;;5073407;28;20180;-81
2021/05/08 10:04:34;;;;;;;5.47;3.70;;;13.10;1.00;;;;;;5071811;28;20172;-82
2021/05/08 10:07:14;;;;;;;6.53;4.20;;;13.10;1.00;;;;;;5069433;28;20176;-82
2021/05/08 10:09:42;;;;;;;7.53;3.80;;;13.20;1.00;;;;;;5069711;28;20692;-79
2021/05/08 10:12:21;;;;;;;5.07;3.83;;;13.40;1.00;;;;;;5072063;28;20199;-82
2021/05/08 10:14:48;;;;;;;6.30;3.43;;;13.30;1.00;;;;;;5072478;28;20624;-79
2021/05/08 10:17:22;;;;;;;5.53;3.53;;;13.60;1.00;;;;;;5071692;28;20636;-81
2021/05/08 10:19:51;;;;;;;7.37;3.87;;;13.80;1.00;;;;;;5072552;28;20179;-81
2021/05/08 10:22:18;;;;;;;5.77;4.40;;;13.90;1.00;;;;;;5072093;28;20184;-80
2021/05/08 10:24:46;;;;;;;5.80;3.50;;;14.00;1.00;;;;;;5071888;28;20169;-80
2021/05/08 10:27:12;;;;;;;7.50;4.77;;;14.00;1.00;;;;;;5072469;28;20197;-81
2021/05/08 10:29:50;;;;;;;6.80;4.53;;;14.10;1.00;;;;;;5072355;28;20530;-79
2021/05/08 10:32:18;;;;;;;7.27;3.77;;;14.10;1.00;;;;;;5075566;28;20164;-81
2021/05/08 10:35:03;;;;;;;5.53;3.80;;;13.80;1.00;;;;;;5073293;28;20195;-82
2021/05/08 10:37:29;;;;;;;7.23;4.73;;;13.50;1.00;;;;;;5074772;28;20233;-80
2021/05/08 10:40:01;;;;;;;6.57;4.80;;;13.50;1.00;;;;;;5074575;28;20161;-79
2021/05/08 10:42:34;;;;;;;6.50;4.90;;;13.40;1.00;;;;;;5074922;28;20232;-82
2021/05/08 10:45:11;;;;;;;7.87;4.63;;;13.40;1.00;;;;;;5073953;28;20200;-80
2021/05/08 10:47:58;;;;;;;8.97;5.80;;;13.40;1.00;;;;;;5075455;28;20168;-80
2021/05/08 10:50:34;;;;;;;6.47;4.63;;;13.40;1.00;;;;;;5074229;28;20180;-79
2021/05/08 10:53:11;;;;;;;7.53;4.97;;;13.40;1.00;;;;;;5075703;28;20182;-80
2021/05/08 10:55:57;;;;;;;6.20;4.60;;;13.50;1.00;;;;;;5075536;28;20275;-80
2021/05/08 10:58:22;;;;;;;6.73;4.27;;;13.50;1.00;;;;;;5074125;28;20206;-79
2021/05/08 11:01:04;;;;;;;6.70;4.47;;;13.50;1.00;;;;;;5075362;28;20172;-81
2021/05/08 11:03:32;;;;;;;8.23;4.17;;;13.70;1.00;;;;;;5075194;28;20328;-81
2021/05/08 11:06:11;;;;;;;6.20;4.63;;;13.60;1.00;;;;;;5074604;28;20219;-80
2021/05/08 11:08:36;;;;;;;7.20;4.60;;;13.60;1.00;;;;;;5075022;28;20191;-81
2021/05/08 11:11:06;;;;;;;8.80;5.20;;;13.70;2.20;;;;;;5073054;28;20601;-80
2021/05/08 11:13:41;;;;;;;6.73;4.90;;;13.70;1.00;;;;;;5074482;28;20172;-79
2021/05/08 11:16:13;;;;;;;7.37;4.47;;;13.90;1.30;;;;;;5073738;28;20270;-81
2021/05/08 11:18:44;;;;;;;7.83;5.00;;;13.90;1.00;;;;;;5073579;28;20168;-80
2021/05/08 11:21:13;;;;;;;8.43;5.80;;;13.80;1.00;;;;;;5073802;28;20540;-81
2021/05/08 11:23:43;;;;;;;7.50;5.00;;;13.80;7.00;;;;;;5074513;28;20161;-79
2021/05/08 11:26:24;;;;;;;8.57;5.20;;;13.90;3.00;;;;;;5074666;28;20199;-82
2021/05/08 11:29:03;;;;;;;8.77;6.53;;;13.80;1.00;;;;;;5074077;28;20168;-81
2021/05/08 11:31:40;;;;;;;7.27;4.70;;;13.80;1.00;;;;;;5074355;28;20169;-81
2021/05/08 11:34:21;;;;;;;7.20;4.17;;;13.90;1.00;;;;;;5072596;28;20211;-81
2021/05/08 11:37:03;;;;;;;9.87;4.10;;;13.90;1.00;;;;;;5074332;28;20233;-82
2021/05/08 11:39:34;;;;;;;5.93;4.27;;;13.90;1.20;;;;;;5074435;28;20172;-81
2021/05/08 11:42:11;;;;;;;5.23;3.83;;;13.90;1.00;;;;;;5072395;28;20595;-82
2021/05/08 11:44:38;;;;;;;7.13;3.63;;;13.90;1.00;;;;;;5074730;28;20199;-81
2021/05/08 11:47:27;;;;;;;4.03;2.87;;;14.00;1.00;;;;;;5075011;28;20176;-82
2021/05/08 11:50:05;;;;;;;5.73;3.20;;;14.00;1.00;;;;;;5074862;28;20176;-81
2021/05/08 11:52:34;;;;;;;4.20;2.80;;;14.10;1.00;;;;;;5074374;28;20176;-79
2021/05/08 11:55:00;;;;;;;4.20;2.60;;;14.20;1.00;;;;;;5073014;28;20180;-82
2021/05/08 11:57:26;;;;;;;4.40;2.97;;;14.30;1.00;;;;;;5074671;28;20173;-81
2021/05/08 11:59:52;;;;;;;5.60;3.03;;;14.40;1.00;;;;;;5072788;28;20204;-81
2021/05/08 12:02:20;;;;;;;5.60;3.00;;;14.40;1.00;;;;;;5074315;28;20238;-80
2021/05/08 12:04:52;;;;;;;4.63;2.87;;;14.60;1.00;;;;;;5073176;28;20184;-82
2021/05/08 12:07:23;;;;;;;4.87;2.90;;;14.70;1.00;;;;;;5072744;28;20185;-80
2021/05/08 12:09:50;;;;;;;6.90;2.77;;;14.80;1.00;;;;;;5074260;28;20180;-81
2021/05/08 12:12:16;;;;;;;4.63;2.60;;;14.90;1.00;;;;;;5074207;28;20188;-80
2021/05/08 12:14:44;;;;;;;3.50;2.47;;;14.90;1.00;;;;;;5072090;28;20518;-80
2021/05/08 12:17:10;;;;;;;3.73;2.60;;;15.00;1.00;;;;;;5073849;28;20172;-81
2021/05/08 12:19:38;;;;;;;4.20;2.70;;;15.20;1.00;;;;;;5073921;28;20232;-81
2021/05/08 12:22:05;;;;;;;3.80;2.50;;;15.10;1.00;;;;;;5073693;28;20173;-82
2021/05/08 12:24:31;;;;;;;5.50;2.87;;;15.30;1.00;;;;;;5073735;28;20168;-79
2021/05/08 12:26:57;;;;;;;4.77;2.83;;;15.20;1.00;;;;;;5072544;28;20308;-81
2021/05/08 12:29:22;;;;;;;4.10;2.70;;;15.20;1.00;;;;;;5073622;28;20646;-83
2021/05/08 12:31:48;;;;;;;4.57;2.53;;;15.20;1.00;;;;;;5071739;28;20600;-80
2021/05/08 12:34:17;;;;;;;4.97;3.30;;;15.30;1.00;;;;;;5073117;28;20542;-82
2021/05/08 12:37:02;;;;;;;7.53;3.17;;;15.40;1.00;;;;;;5073041;28;20638;-80
2021/05/08 12:39:28;;;;;;;6.70;3.10;;;15.50;1.00;;;;;;5073298;28;20176;-80
2021/05/08 12:42:00;;;;;;;4.30;2.90;;;15.60;1.00;;;;;;5073209;28;20179;-81
2021/05/08 12:44:39;;;;;;;4.53;2.60;;;15.60;1.00;;;;;;5073302;28;20173;-83
2021/05/08 12:47:19;;;;;;;6.50;3.53;;;15.60;1.00;;;;;;5072871;28;20172;-80
2021/05/08 12:50:33;;;;;;;9.30;3.30;;;15.70;1.00;;;;;;5072272;28;20628;-81
2021/05/08 12:52:59;;;;;;;7.03;3.27;;;15.70;1.00;;;;;;5066711;28;20508;-81
2021/05/08 12:55:31;;;;;;;6.10;3.13;;;15.60;1.00;;;;;;5070399;28;20199;-82
2021/05/08 12:58:13;;;;;;;7.07;3.10;;;15.70;1.00;;;;;;5073022;28;20211;-80
2021/05/08 13:00:54;;;;;;;7.17;3.30;;;15.80;1.00;;;;;;5071221;28;20176;-80